Time;durP1;ratioP1;P1;durP2;ratioP2;P2;SDS_P1;SDS_P2;PMS_P1;PMS_P2;Temp;Humidity;BMP_temperature;BMP_pressure;BME280_temperature;BME280_humidity;BME280_pressure;Samples;Min_cycle;Max_cycle;Signal;HPM_P1;HPM_P2
2022/04/21 00:00:43;;;;;;;6.53;3.45;;;;;;;20.58;41.28;101626.22;5040687;28;20068;-41
2022/04/21 00:03:10;;;;;;;6.03;3.83;;;;;;;20.59;41.07;101630.59;5038507;28;20602;-40
2022/04/21 00:05:37;;;;;;;5.65;3.53;;;;;;;20.58;41.33;101628.03;5038987;28;20044;-40
2022/04/21 00:08:04;;;;;;;6.00;3.53;;;;;;;20.55;41.14;101625.66;5037313;28;20678;-41
2022/04/21 00:10:31;;;;;;;6.20;3.67;;;;;;;20.54;41.61;101614.00;5036550;28;20059;-40
2022/04/21 00:12:58;;;;;;;5.50;3.58;;;;;;;20.55;41.73;101606.81;5039549;28;20069;-40
2022/04/21 00:15:25;;;;;;;4.43;3.15;;;;;;;20.53;41.33;101606.09;5038242;28;20047;-42
2022/04/21 00:17:52;;;;;;;5.32;3.67;;;;;;;20.52;41.33;101607.09;5039021;28;20982;-40
2022/04/21 00:20:19;;;;;;;6.55;4.15;;;;;;;20.51;41.65;101597.34;5038977;28;20048;-40
2022/04/21 00:25:31;;;;;;;4.88;3.38;;;;;;;20.49;41.34;101605.56;5037442;28;20127;-40
2022/04/21 00:27:58;;;;;;;5.45;3.17;;;;;;;20.49;41.33;101610.94;5039594;28;20057;-40
2022/04/21 00:30:25;;;;;;;5.43;3.25;;;;;;;20.48;41.83;101606.53;5039203;28;20052;-40
2022/04/21 00:32:52;;;;;;;6.35;3.72;;;;;;;20.47;41.87;101607.53;5038801;28;20059;-40
2022/04/21 00:35:24;;;;;;;4.53;3.13;;;;;;;20.45;42.09;101601.44;5037651;28;20036;-40
2022/04/21 00:37:56;;;;;;;3.90;2.80;;;;;;;20.46;41.88;101604.00;5039389;28;20059;-40
2022/04/21 00:40:27;;;;;;;4.95;3.25;;;;;;;20.42;41.54;101605.28;5037796;28;20052;-40
2022/04/21 00:42:55;;;;;;;4.55;2.97;;;;;;;20.41;42.29;101602.72;5040100;28;20132;-40
2022/04/21 00:45:22;;;;;;;4.95;3.40;;;;;;;20.38;41.54;101601.22;5038259;28;20055;-40
2022/04/21 00:47:51;;;;;;;4.85;3.13;;;;;;;20.40;42.08;101601.88;5037852;28;20060;-40
2022/04/21 00:50:27;;;;;;;3.88;2.70;;;;;;;20.38;41.94;101597.63;5039817;28;20041;-40
2022/04/21 00:52:55;;;;;;;6.03;2.67;;;;;;;20.39;41.57;101602.91;5037349;28;20141;-40
2022/04/21 00:55:22;;;;;;;4.53;3.15;;;;;;;20.36;41.80;101599.66;5037611;28;20037;-40
2022/04/21 00:57:50;;;;;;;5.43;2.85;;;;;;;20.37;42.07;101602.19;5039618;28;21008;-40
2022/04/21 01:00:17;;;;;;;4.80;2.88;;;;;;;20.36;42.04;101605.03;5046600;28;20065;-40
2022/04/21 01:02:51;;;;;;;5.70;3.28;;;;;;;20.33;41.55;101598.09;5040091;28;20044;-40
2022/04/21 01:05:26;;;;;;;5.05;2.67;;;;;;;20.34;42.13;101601.63;5039275;28;20093;-40
2022/04/21 01:07:54;;;;;;;4.60;2.72;;;;;;;20.32;41.82;101595.56;5039711;28;20036;-40
2022/04/21 01:10:22;;;;;;;3.78;2.47;;;;;;;20.31;41.87;101601.97;5038079;28;20080;-40
2022/04/21 01:12:49;;;;;;;3.95;2.47;;;;;;;20.30;41.76;101598.41;5036134;28;20049;-40
2022/04/21 01:15:16;;;;;;;5.25;2.55;;;;;;;20.29;41.48;101594.00;5037501;28;20045;-41
2022/04/21 01:17:43;;;;;;;6.28;2.70;;;;;;;20.28;41.64;101596.88;5037966;28;20053;-40
2022/04/21 01:20:14;;;;;;;4.47;2.95;;;;;;;20.27;42.49;101600.56;5038509;28;20141;-40
2022/04/21 01:22:40;;;;;;;3.33;2.20;;;;;;;20.26;41.92;101605.09;5038027;28;20059;-40
2022/04/21 01:25:07;;;;;;;4.90;2.80;;;;;;;20.26;41.83;101601.53;5035561;28;20055;-40
2022/04/21 01:27:36;;;;;;;4.68;2.60;;;;;;;20.23;42.33;101596.47;5039243;28;20436;-40
2022/04/21 01:30:04;;;;;;;4.78;2.30;;;;;;;20.23;42.09;101599.16;5038257;28;20285;-41
2022/04/21 01:32:35;;;;;;;3.42;2.30;;;;;;;20.23;41.93;101593.78;5038008;28;20048;-41
2022/04/21 01:35:07;;;;;;;4.35;2.78;;;;;;;20.21;42.54;101599.28;5038351;28;20059;-40
2022/04/21 01:43:06;;;;;;;3.53;2.45;;;;;;;20.16;42.07;101588.97;5038300;28;20041;-41
2022/04/21 01:45:33;;;;;;;4.10;2.55;;;;;;;20.14;42.64;101591.00;5039774;28;20032;-40
2022/04/21 01:47:59;;;;;;;5.00;2.40;;;;;;;20.13;42.84;101588.44;5039717;28;20036;-41
2022/04/21 01:50:26;;;;;;;2.97;2.20;;;;;;;20.14;42.26;101587.44;5038007;28;20049;-40
2022/04/21 01:52:53;;;;;;;3.63;2.20;;;;;;;20.13;42.50;101586.59;5037489;28;20052;-40
2022/04/21 01:55:20;;;;;;;5.43;2.22;;;;;;;20.12;42.24;101579.50;5038002;28;20040;-40
2022/04/21 01:57:46;;;;;;;3.83;2.05;;;;;;;20.11;42.67;101574.28;5038499;28;20354;-40
2022/04/21 02:00:13;;;;;;;3.70;2.03;;;;;;;20.09;42.73;101582.50;5036898;28;20044;-40
2022/04/21 02:02:40;;;;;;;4.50;2.30;;;;;;;20.09;42.68;101574.44;5037901;28;21241;-40
2022/04/21 02:05:07;;;;;;;3.38;2.33;;;;;;;20.08;42.80;101572.75;5038675;28;20044;-40
2022/04/21 02:07:33;;;;;;;4.72;2.30;;;;;;;20.08;42.54;101578.13;5037019;28;20450;-40
2022/04/21 02:10:00;;;;;;;3.65;2.40;;;;;;;20.06;42.17;101574.75;5038980;28;20052;-40
2022/04/21 02:12:28;;;;;;;3.20;2.28;;;;;;;20.05;41.90;101581.09;5039077;28;20051;-40
2022/04/21 02:14:55;;;;;;;3.10;2.13;;;;;;;20.03;42.35;101588.50;5037626;28;20124;-40
2022/04/21 02:17:24;;;;;;;2.70;1.95;;;;;;;20.02;42.21;101585.94;5041164;28;20049;-40
2022/04/21 02:19:51;;;;;;;4.07;2.50;;;;;;;20.01;42.34;101573.47;5037934;28;20041;-40
2022/04/21 02:22:17;;;;;;;4.18;2.15;;;;;;;20.00;42.96;101583.41;5040379;28;20053;-40
2022/04/21 02:24:44;;;;;;;2.67;1.90;;;;;;;19.98;42.48;101569.25;5038359;28;20135;-40
2022/04/21 02:27:11;;;;;;;3.10;2.10;;;;;;;19.97;42.42;101572.94;5038114;28;20045;-40
2022/04/21 02:29:38;;;;;;;2.67;1.83;;;;;;;19.95;42.81;101572.25;5037470;28;20045;-40
2022/04/21 02:32:04;;;;;;;3.10;2.17;;;;;;;19.95;42.42;101573.09;5037568;28;20143;-40
2022/04/21 02:34:31;;;;;;;4.90;2.25;;;;;;;19.95;42.33;101577.63;5035801;28;20064;-40
2022/04/21 02:36:58;;;;;;;3.05;2.03;;;;;;;19.92;43.13;101572.53;5037348;28;20320;-40
2022/04/21 02:39:25;;;;;;;2.90;1.77;;;;;;;19.90;42.90;101567.31;5037419;28;20051;-40
2022/04/21 02:41:51;;;;;;;3.33;2.03;;;;;;;19.90;43.16;101563.75;5037640;28;20075;-41
2022/04/21 02:44:18;;;;;;;3.08;2.13;;;;;;;19.88;42.64;101557.69;5037211;28;20041;-40
2022/04/21 02:46:44;;;;;;;3.53;2.10;;;;;;;19.88;42.83;101560.38;5036351;28;20052;-41
2022/04/21 02:49:11;;;;;;;4.43;2.25;;;;;;;19.86;42.83;101559.66;5036485;28;20057;-40
2022/04/21 02:51:38;;;;;;;2.72;1.83;;;;;;;19.84;42.54;101567.03;5036700;28;20053;-40
2022/04/21 02:59:35;;;;;;;3.30;1.77;;;;;;;19.81;42.70;101568.19;5034991;28;20063;-39
2022/04/21 03:02:02;;;;;;;3.17;1.92;;;;;;;19.79;42.92;101566.66;5034564;28;20049;-40
2022/04/21 03:04:29;;;;;;;2.30;1.83;;;;;;;19.78;43.49;101563.13;5037326;28;20041;-40
2022/04/21 03:06:55;;;;;;;3.35;2.08;;;;;;;19.78;43.24;101567.63;5038336;28;20055;-40
2022/04/21 03:09:22;;;;;;;3.75;2.20;;;;;;;19.76;43.29;101564.25;5035570;28;20063;-40
2022/04/21 03:11:48;;;;;;;2.53;1.67;;;;;;;19.76;42.80;101561.56;5035380;28;20055;-40
2022/04/21 03:14:15;;;;;;;2.60;1.75;;;;;;;19.74;42.94;101561.72;5035622;28;20060;-39
2022/04/21 03:16:42;;;;;;;3.22;1.83;;;;;;;19.72;43.57;101558.31;5040110;28;20051;-40
2022/04/21 03:19:08;;;;;;;1.75;1.52;;;;;;;19.70;43.56;101563.84;5038609;28;20057;-40
2022/04/21 03:24:20;;;;;;;2.60;1.75;;;;;;;19.71;43.26;101565.53;5039826;28;20132;-40
2022/04/21 03:26:47;;;;;;;4.55;1.85;;;;;;;19.70;42.77;101574.59;5042480;28;20055;-40
2022/04/21 03:29:14;;;;;;;3.10;2.03;;;;;;;19.69;43.43;101563.97;5042974;28;20051;-40
2022/04/21 03:31:44;;;;;;;2.28;1.80;;;;;;;19.67;43.29;101566.81;5038338;28;20175;-40
2022/04/21 03:34:13;;;;;;;1.65;1.40;;;;;;;19.68;42.80;101573.06;5040492;28;20059;-40
2022/04/21 03:39:17;;;;;;;2.92;1.98;;;;;;;19.66;43.44;101575.06;5037514;28;20063;-40
2022/04/21 03:41:44;;;;;;;2.50;1.70;;;;;;;19.64;43.08;101567.09;5037750;28;20052;-40
2022/04/21 03:44:11;;;;;;;3.65;1.60;;;;;;;19.64;43.05;101566.28;5037735;28;20078;-40
2022/04/21 03:46:38;;;;;;;2.42;1.80;;;;;;;19.62;43.18;101573.66;5037518;28;20040;-41
2022/04/21 03:49:08;;;;;;;2.58;1.90;;;;;;;19.61;42.86;101567.41;5039353;28;20588;-41
2022/04/21 03:51:34;;;;;;;2.33;1.60;;;;;;;19.61;43.63;101567.41;5039587;28;20053;-40
2022/04/21 03:54:01;;;;;;;2.92;1.73;;;;;;;19.61;43.42;101566.53;5038405;28;20064;-41
2022/04/21 03:56:28;;;;;;;3.20;1.90;;;;;;;19.60;42.98;101556.75;5038215;28;20043;-41
2022/04/21 03:58:56;;;;;;;2.55;1.58;;;;;;;19.57;43.18;101563.28;5038570;28;21519;-41
2022/04/21 04:01:23;;;;;;;4.90;2.50;;;;;;;19.55;44.03;101562.59;5039550;28;20152;-40
2022/04/21 04:03:50;;;;;;;4.28;2.28;;;;;;;19.55;43.66;101567.13;5042336;28;20140;-40
2022/04/21 04:11:50;;;;;;;3.80;2.47;;;;;;;19.53;44.08;101563.72;5053080;28;20045;-40
2022/04/21 04:14:16;;;;;;;3.88;1.92;;;;;;;19.52;43.18;101562.03;5049718;28;20087;-41
2022/04/21 04:16:44;;;;;;;7.18;2.25;;;;;;;19.52;43.51;101560.19;5045376;28;20048;-40
2022/04/21 04:19:11;;;;;;;4.75;2.30;;;;;;;19.52;43.82;101568.25;5041277;28;20107;-41
2022/04/21 04:21:38;;;;;;;5.38;2.60;;;;;;;19.51;43.84;101563.88;5044881;28;20139;-41
2022/04/21 04:24:05;;;;;;;5.82;2.38;;;;;;;19.49;43.61;101558.63;5044078;28;20052;-41
2022/04/21 04:26:32;;;;;;;6.00;3.25;;;;;;;19.49;43.44;101557.78;5042490;28;20329;-40
2022/04/21 04:28:59;;;;;;;6.18;3.22;;;;;;;19.47;43.81;101563.31;5043400;28;20053;-40
2022/04/21 04:31:26;;;;;;;4.97;2.90;;;;;;;19.47;43.76;101568.69;5042549;28;20064;-40
2022/04/21 04:33:52;;;;;;;9.15;3.45;;;;;;;19.47;43.31;101560.63;5041208;28;20055;-40
2022/04/21 04:36:19;;;;;;;8.48;3.90;;;;;;;19.46;43.53;101572.38;5043923;28;20065;-40
2022/04/21 04:38:48;;;;;;;8.57;4.22;;;;;;;19.46;43.82;101574.22;5043126;28;20140;-41
2022/04/21 04:44:02;;;;;;;6.80;4.00;;;;;;;19.44;43.96;101571.66;5042283;28;20349;-41
2022/04/21 04:46:42;;;;;;;6.60;4.15;;;;;;;19.45;43.90;101573.34;5042034;28;20438;-41
2022/04/21 04:49:09;;;;;;;8.93;4.22;;;;;;;19.44;43.43;101568.97;5044835;28;20047;-41
2022/04/21 04:51:41;;;;;;;8.15;4.40;;;;;;;19.43;43.24;101569.97;5048557;28;20808;-40
2022/04/21 04:54:09;;;;;;;10.75;5.03;;;;;;;19.43;43.65;101569.13;5042466;28;20048;-40
2022/04/21 04:56:37;;;;;;;8.82;5.20;;;;;;;19.43;43.66;101564.59;5043922;28;20032;-40
2022/04/21 04:59:04;;;;;;;9.50;5.05;;;;;;;19.43;43.49;101569.97;5041763;28;20132;-40
2022/04/21 05:01:40;;;;;;;8.40;4.43;;;;;;;19.45;43.46;101572.50;5043437;28;20078;-41
2022/04/21 05:04:09;;;;;;;8.35;4.95;;;;;;;19.46;43.57;101568.84;5042710;28;20051;-39
2022/04/21 05:06:42;;;;;;;10.70;4.60;;;;;;;19.47;42.79;101570.53;5044522;28;20049;-39
2022/04/21 05:09:11;;;;;;;9.48;4.60;;;;;;;19.49;43.36;101587.34;5041760;28;20047;-40
2022/04/21 05:11:39;;;;;;;8.95;5.07;;;;;;;19.52;43.45;101594.28;5042272;28;20167;-40
2022/04/21 05:14:08;;;;;;;7.90;4.47;;;;;;;19.54;42.64;101586.91;5042122;28;20045;-40
2022/04/21 05:16:36;;;;;;;10.65;5.72;;;;;;;19.55;43.17;101589.47;5041469;28;20052;-40
2022/04/21 05:19:04;;;;;;;9.52;5.30;;;;;;;19.58;43.07;101586.50;5043117;28;20420;-40
2022/04/21 05:21:32;;;;;;;10.43;5.35;;;;;;;19.57;43.05;101582.09;5042856;28;20069;-41
2022/04/21 05:23:59;;;;;;;8.90;4.97;;;;;;;19.59;42.46;101588.19;5042416;28;20491;-40
2022/04/21 05:26:27;;;;;;;9.75;5.07;;;;;;;19.59;42.74;101584.66;5041419;28;20394;-41
2022/04/21 05:28:56;;;;;;;10.13;5.80;;;;;;;19.57;42.40;101578.56;5042545;28;20052;-40
2022/04/21 05:31:23;;;;;;;9.52;5.15;;;;;;;19.56;43.03;101585.78;5041637;28;20075;-40
2022/04/21 05:33:50;;;;;;;10.52;5.50;;;;;;;19.56;42.44;101580.41;5042605;28;20053;-40
2022/04/21 05:36:16;;;;;;;9.02;4.95;;;;;;;19.56;42.75;101577.72;5042174;28;20114;-41
2022/04/21 05:38:43;;;;;;;9.82;5.88;;;;;;;19.55;42.39;101578.72;5041362;28;20041;-41
2022/04/21 05:41:13;;;;;;;10.48;5.47;;;;;;;19.55;43.01;101583.25;5041067;28;20057;-40
2022/04/21 05:43:44;;;;;;;10.13;5.38;;;;;;;19.54;42.76;101577.03;5037723;28;20192;-40
2022/04/21 05:46:13;;;;;;;8.98;5.40;;;;;;;19.56;42.43;101588.47;5039629;28;20044;-41
2022/04/21 05:48:41;;;;;;;8.43;4.97;;;;;;;19.53;42.38;101575.31;5041495;28;20442;-41
2022/04/21 05:51:09;;;;;;;8.43;5.63;;;;;;;19.53;43.21;101580.69;5042744;28;20044;-40
2022/04/21 05:53:46;;;;;;;12.02;6.20;;;;;;;19.52;42.95;101580.84;5041652;28;20044;-41
2022/04/21 05:56:13;;;;;;;8.73;5.78;;;;;;;19.51;43.01;101577.31;5041699;28;20045;-40
2022/04/21 05:58:40;;;;;;;9.05;5.57;;;;;;;19.50;43.15;101578.31;5041958;28;20076;-40
2022/04/21 06:01:08;;;;;;;11.30;6.05;;;;;;;19.48;42.61;101574.91;5041775;28;20047;-41
2022/04/21 06:03:37;;;;;;;12.90;6.30;;;;;;;19.50;42.88;101575.63;5040348;28;20416;-40
2022/04/21 06:06:06;;;;;;;9.80;5.97;;;;;;;19.49;42.58;101576.59;5042486;28;20128;-41
2022/04/21 06:08:38;;;;;;;;;;;;;;;19.47;42.80;101573.22;5042421;28;20123;-41
2022/04/21 06:11:05;;;;;;;10.07;5.78;;;;;;;19.48;42.98;101575.75;5042061;28;19916;-41
2022/04/21 06:13:32;;;;;;;10.90;6.10;;;;;;;19.47;42.83;101568.69;5041745;28;20057;-41
2022/04/21 06:15:58;;;;;;;8.98;5.40;;;;;;;19.47;42.85;101570.53;5039513;28;20316;-41
2022/04/21 06:18:26;;;;;;;7.90;5.47;;;;;;;19.47;42.54;101570.53;5042314;28;20053;-41
2022/04/21 06:20:54;;;;;;;8.88;5.45;;;;;;;19.46;42.91;101569.69;5041562;28;20483;-41
2022/04/21 06:23:21;;;;;;;9.25;5.35;;;;;;;19.47;43.07;101571.38;5041702;28;20060;-40
2022/04/21 06:25:48;;;;;;;9.13;5.22;;;;;;;19.48;43.11;101574.91;5041369;28;20072;-41
2022/04/21 06:28:15;;;;;;;9.30;5.93;;;;;;;19.47;43.22;101573.22;5040789;28;20080;-40
2022/04/21 06:30:42;;;;;;;8.68;5.20;;;;;;;19.46;42.75;101571.53;5043297;28;20419;-41
2022/04/21 06:33:14;;;;;;;9.50;5.28;;;;;;;19.47;42.94;101570.53;5047158;28;20037;-40
2022/04/21 06:35:41;;;;;;;9.55;5.22;;;;;;;19.47;42.54;101567.84;5042072;28;20061;-41
2022/04/21 06:38:08;;;;;;;8.35;5.22;;;;;;;19.47;42.55;101570.53;5045741;28;20045;-41
2022/04/21 06:40:34;;;;;;;10.27;5.75;;;;;;;19.47;42.24;101570.53;5041395;28;20041;-41
2022/04/21 06:43:03;;;;;;;8.80;5.60;;;;;;;19.48;42.80;101569.53;5040752;28;20053;-41
2022/04/21 06:48:22;;;;;;;9.05;5.32;;;;;;;19.49;42.23;101574.75;5045151;28;20135;-41
2022/04/21 06:50:49;;;;;;;8.10;5.18;;;;;;;19.51;42.63;101569.25;5044595;28;20131;-40
2022/04/21 06:53:16;;;;;;;8.32;5.07;;;;;;;19.54;42.69;101570.78;5050576;28;20709;-41
2022/04/21 06:55:42;;;;;;;8.77;5.55;;;;;;;19.56;42.60;101575.03;5050956;28;20366;-41
2022/04/21 06:58:09;;;;;;;8.60;5.35;;;;;;;19.57;42.08;101568.66;5051485;28;20095;-41
2022/04/21 07:00:37;;;;;;;7.28;4.65;;;;;;;19.60;41.80;101572.91;5050704;28;20048;-40
2022/04/21 07:03:07;;;;;;;8.43;4.72;;;;;;;19.60;42.79;101567.53;5051935;28;20045;-41
2022/04/21 07:05:34;;;;;;;7.47;5.07;;;;;;;19.62;42.61;101561.03;5050669;28;20044;-40
2022/04/21 07:08:01;;;;;;;7.50;4.63;;;;;;;19.64;41.88;101563.56;5050751;28;20051;-41
2022/04/21 07:10:28;;;;;;;7.68;4.55;;;;;;;19.65;41.93;101563.41;5051404;28;20108;-41
2022/04/21 07:12:54;;;;;;;7.32;4.97;;;;;;;19.67;42.12;101566.81;5050697;28;20395;-41
2022/04/21 07:15:21;;;;;;;6.82;4.50;;;;;;;19.68;41.79;101556.91;5048537;28;20408;-41
2022/04/21 07:17:47;;;;;;;7.82;4.53;;;;;;;19.69;41.65;101567.50;5050721;28;20123;-40
2022/04/21 07:20:14;;;;;;;6.85;4.22;;;;;;;19.70;42.21;101565.69;5050083;28;20040;-41
2022/04/21 07:22:40;;;;;;;7.57;4.30;;;;;;;19.70;41.66;101569.22;5053366;28;20111;-41
2022/04/21 07:25:09;;;;;;;6.70;4.45;;;;;;;19.70;42.17;101577.28;5052907;28;20183;-40
2022/04/21 07:27:37;;;;;;;9.07;4.55;;;;;;;19.72;41.57;101572.59;5049037;28;20520;-41
2022/04/21 07:30:05;;;;;;;7.15;4.60;;;;;;;19.74;42.27;101577.84;5049219;28;20588;-41
2022/04/21 07:32:32;;;;;;;6.95;4.50;;;;;;;19.76;42.16;101575.00;5052709;28;21092;-41
2022/04/21 07:35:00;;;;;;;6.03;3.95;;;;;;;19.75;41.58;101573.31;5051600;28;20968;-41
2022/04/21 07:37:28;;;;;;;6.30;3.92;;;;;;;19.77;42.24;101574.00;5049437;28;20041;-41
2022/04/21 07:39:54;;;;;;;5.53;4.07;;;;;;;19.76;42.14;101581.22;5049613;28;20136;-41
2022/04/21 07:42:22;;;;;;;6.97;4.10;;;;;;;19.77;42.09;101582.06;5050772;28;20191;-41
2022/04/21 07:44:49;;;;;;;6.30;3.97;;;;;;;19.77;42.08;101571.31;5046946;28;20416;-41
2022/04/21 07:47:16;;;;;;;6.50;4.20;;;;;;;19.78;41.63;101578.38;5052354;28;20048;-41
2022/04/21 07:49:46;;;;;;;7.35;4.47;;;;;;;19.78;41.64;101578.38;5050633;28;20890;-40
2022/04/21 07:55:23;;;;;;;7.05;3.90;;;;;;;19.79;41.75;101575.56;5051186;28;20136;-40
2022/04/21 07:57:52;;;;;;;6.13;3.97;;;;;;;19.80;42.05;101571.03;5051359;28;20041;-41
2022/04/21 08:00:19;;;;;;;6.07;3.45;;;;;;;19.80;41.44;101566.50;5049845;28;20055;-41
2022/04/21 08:02:47;;;;;;;6.45;3.78;;;;;;;19.80;41.49;101574.56;5053917;28;20047;-41
2022/04/21 08:05:19;;;;;;;7.75;3.75;;;;;;;19.82;41.22;101582.47;5051935;28;20041;-41
2022/04/21 08:07:46;;;;;;;7.25;4.60;;;;;;;19.82;41.38;101587.84;5051224;28;20052;-41
2022/04/21 08:10:18;;;;;;;5.43;3.75;;;;;;;19.83;42.02;101576.13;5049010;28;20036;-41
2022/04/21 08:12:46;;;;;;;5.70;3.67;;;;;;;19.82;42.08;101579.78;5051658;28;20064;-41
2022/04/21 08:15:21;;;;;;;5.85;3.33;;;;;;;19.83;41.34;101581.50;5048597;28;20136;-41
2022/04/21 08:17:48;;;;;;;6.07;3.85;;;;;;;19.84;41.31;101583.19;5052055;28;20148;-41
2022/04/21 08:20:14;;;;;;;6.75;3.83;;;;;;;19.83;41.94;101574.28;5050586;28;20155;-41
2022/04/21 08:22:41;;;;;;;4.28;2.88;;;;;;;19.85;41.94;101579.50;5049147;28;20045;-41
2022/04/21 08:34:03;;;;;;;4.72;3.20;;;;;;;19.88;42.14;101580.03;5050562;28;20049;-41
2022/04/21 08:36:29;;;;;;;5.47;3.58;;;;;;;19.89;41.15;101580.91;5048581;28;20415;-41
2022/04/21 08:38:56;;;;;;;6.90;3.78;;;;;;;19.89;42.11;101584.44;5050553;28;20558;-41
2022/04/21 08:41:27;;;;;;;5.18;3.55;;;;;;;19.90;41.52;101578.06;5050239;28;20055;-41
2022/04/21 08:43:56;;;;;;;4.72;3.35;;;;;;;19.93;41.87;101579.59;5050599;28;20049;-41
2022/04/21 08:46:27;;;;;;;6.07;3.42;;;;;;;19.93;41.60;101577.75;5050391;28;20366;-41
2022/04/21 08:48:54;;;;;;;5.25;3.60;;;;;;;19.95;41.82;101575.78;5049527;28;20124;-41
2022/04/21 08:51:22;;;;;;;5.65;3.30;;;;;;;19.97;41.58;101575.63;5049256;28;20043;-41
2022/04/21 08:53:50;;;;;;;5.55;3.33;;;;;;;20.00;42.15;101571.78;5048509;28;20055;-40
2022/04/21 08:56:17;;;;;;;7.18;3.30;;;;;;;20.00;41.88;101572.63;5049038;28;20052;-41
2022/04/21 08:58:44;;;;;;;14.48;3.50;;;;;;;20.03;42.54;101571.50;5050018;28;20045;-41
2022/04/21 09:01:10;;;;;;;8.75;4.18;;;;;;;20.04;43.02;101574.03;5048407;28;20430;-41
2022/04/21 09:03:37;;;;;;;13.90;4.00;;;;;;;20.06;44.05;101563.97;5049772;28;20076;-41
2022/04/21 09:06:04;;;;;;;8.50;3.65;;;;;;;20.09;44.69;101565.50;5049965;28;20427;-42
2022/04/21 09:08:34;;;;;;;12.02;3.70;;;;;;;20.12;44.85;101560.69;5051521;28;20412;-42
2022/04/21 09:11:09;;;;;;;19.35;5.25;;;;;;;20.14;47.97;101557.81;5050008;28;20147;-41
2022/04/21 09:13:40;;;;;;;30.67;4.60;;;;;;;20.17;49.69;101557.53;5049081;28;20059;-41
2022/04/21 09:16:10;;;;;;;18.40;4.15;;;;;;;20.19;51.59;101560.94;5049854;28;20045;-41
2022/04/21 09:18:41;;;;;;;22.00;5.43;;;;;;;20.23;52.13;101556.09;5049571;28;20051;-41
2022/04/21 09:21:14;;;;;;;15.65;4.88;;;;;;;20.26;51.80;101556.66;5050922;28;20823;-43
2022/04/21 09:23:42;;;;;;;15.77;4.53;;;;;;;20.31;52.68;101564.28;5047555;28;20674;-41
2022/04/21 09:26:14;;;;;;;9.75;4.00;;;;;;;20.33;51.47;101557.72;5049341;28;20052;-41
2022/04/21 09:28:55;;;;;;;12.25;4.38;;;;;;;20.38;51.38;101549.19;5051776;28;20056;-43
2022/04/21 09:31:24;;;;;;;10.02;3.85;;;;;;;20.43;50.22;101554.97;5047691;28;20076;-41
2022/04/21 09:33:51;;;;;;;13.15;3.65;;;;;;;20.47;49.27;101550.97;5050384;28;20060;-42
2022/04/21 09:36:18;;;;;;;12.85;4.35;;;;;;;20.51;48.87;101543.47;5049886;28;20152;-42
2022/04/21 09:39:09;;;;;;;8.35;3.72;;;;;;;20.55;48.56;101545.72;5049825;28;20043;-43
2022/04/21 09:41:35;;;;;;;10.38;2.97;;;;;;;20.61;48.30;101544.22;5049710;28;20132;-43
2022/04/21 09:46:07;;;;;;;16.52;3.35;;;;;;;20.65;47.79;101543.78;5048779;28;20321;-43
2022/04/21 09:47:00;;;;;;;15.90;3.60;;;;;;;20.70;46.58;101538.78;5046971;28;20304;-43
2022/04/21 09:49:39;;;;;;;9.40;3.58;;;;;;;20.75;47.46;101541.00;5047130;28;20053;-42
2022/04/21 09:52:06;;;;;;;11.85;4.35;;;;;;;20.79;47.78;101533.47;5050118;28;20458;-45
2022/04/21 09:54:34;;;;;;;6.18;3.30;;;;;;;20.83;46.77;101530.31;5050705;28;20041;-44
2022/04/21 09:57:02;;;;;;;8.40;2.78;;;;;;;20.87;46.54;101534.38;5046372;28;20132;-43
2022/04/21 09:59:29;;;;;;;8.15;3.03;;;;;;;20.90;45.85;101533.22;5050329;28;20041;-43
2022/04/21 10:01:55;;;;;;;9.85;3.60;;;;;;;20.93;46.32;101522.97;5050065;28;20148;-43
2022/04/21 10:04:24;;;;;;;6.95;3.30;;;;;;;20.98;45.21;101530.56;5050859;28;20127;-44
2022/04/21 10:06:51;;;;;;;7.40;2.97;;;;;;;21.00;45.21;101523.19;5048639;28;20402;-43
2022/04/21 10:09:17;;;;;;;10.15;3.08;;;;;;;21.00;45.20;101525.91;5052988;28;20067;-43
2022/04/21 10:11:44;;;;;;;6.88;2.70;;;;;;;21.05;44.76;101520.88;5050131;28;20041;-44
2022/04/21 10:14:12;;;;;;;7.68;2.95;;;;;;;21.07;44.98;101516.19;5051245;28;20058;-43
2022/04/21 10:16:44;;;;;;;5.40;2.30;;;;;;;21.10;44.37;101513.16;5043552;28;20064;-44
2022/04/21 10:19:13;;;;;;;7.05;2.17;;;;;;;21.12;44.02;101502.22;5034256;28;20041;-43
2022/04/21 10:22:01;;;;;;;4.18;2.50;;;;;;;21.13;43.31;101502.06;5050304;28;20467;-43
2022/04/21 10:24:32;;;;;;;5.20;2.00;;;;;;;21.16;43.05;101501.75;5049842;28;20129;-41
2022/04/21 10:26:59;;;;;;;7.80;2.17;;;;;;;21.19;42.53;101506.84;5050552;28;20048;-40
2022/04/21 10:29:27;;;;;;;4.90;2.25;;;;;;;21.20;42.51;101497.72;5051922;28;20037;-40
2022/04/21 10:31:55;;;;;;;4.88;2.33;;;;;;;21.25;41.97;101499.94;5054857;28;20343;-42
2022/04/21 10:34:44;;;;;;;6.82;1.98;;;;;;;21.27;41.44;101486.31;5056575;28;20045;-42
2022/04/21 10:37:19;;;;;;;3.47;1.95;;;;;;;21.28;41.63;101494.25;5050211;28;20047;-41
2022/04/21 10:40:14;;;;;;;4.65;2.17;;;;;;;21.29;41.34;101485.13;5051748;28;20131;-42
2022/04/21 10:42:53;;;;;;;3.42;1.65;;;;;;;21.30;40.23;101486.81;5052679;28;20168;-42
2022/04/21 10:45:27;;;;;;;4.82;1.63;;;;;;;21.32;39.86;101484.88;5052662;28;20107;-42
2022/04/21 10:48:08;;;;;;;4.60;1.67;;;;;;;21.33;40.64;101477.63;5053073;28;20099;-41
2022/04/21 10:50:36;;;;;;;4.03;1.75;;;;;;;21.34;40.19;101472.03;5056164;28;20393;-40
2022/04/21 10:58:35;;;;;;;2.05;1.50;;;;;;;21.38;40.39;101470.72;5003563;28;20071;-41
2022/04/21 11:01:13;;;;;;;2.50;1.52;;;;;;;21.38;39.26;101465.31;5052111;28;20077;-42
2022/04/21 11:03:41;;;;;;;2.00;1.45;;;;;;;21.40;39.29;101459.78;5055330;28;20052;-42
2022/04/21 11:06:10;;;;;;;2.58;1.55;;;;;;;21.42;39.83;101457.75;5051046;28;20128;-41
2022/04/21 11:08:37;;;;;;;2.25;1.50;;;;;;;21.43;39.80;101460.31;5053101;28;20072;-41
2022/04/21 11:11:04;;;;;;;5.68;1.67;;;;;;;21.44;39.82;101453.06;5052229;28;20061;-42
2022/04/21 11:13:42;;;;;;;1.92;1.30;;;;;;;21.44;39.12;101456.59;5051459;28;21572;-43
2022/04/21 11:16:09;;;;;;;3.25;1.50;;;;;;;21.45;38.52;101454.75;5049213;28;20046;-42
2022/04/21 11:18:36;;;;;;;2.78;1.65;;;;;;;21.46;38.15;101453.75;5053800;28;20422;-41
2022/04/21 11:21:22;;;;;;;2.35;1.52;;;;;;;21.47;37.38;101454.56;5050840;28;20064;-40
2022/04/21 11:23:49;;;;;;;2.65;1.52;;;;;;;21.49;38.04;101448.03;5051709;28;20124;-41
2022/04/21 11:26:15;;;;;;;3.38;1.55;;;;;;;21.50;38.14;101441.63;5052290;28;20053;-43
2022/04/21 11:28:43;;;;;;;2.03;1.20;;;;;;;21.52;37.54;101457.66;5052444;28;20358;-42
2022/04/21 11:31:10;;;;;;;4.65;1.63;;;;;;;21.53;36.89;101444.00;5050578;28;20041;-41
2022/04/21 11:33:44;;;;;;;4.30;1.30;;;;;;;21.55;36.44;101447.41;5051464;28;20083;-41
2022/04/21 11:36:13;;;;;;;2.70;1.40;;;;;;;21.55;37.12;101450.09;5051357;28;20123;-41
2022/04/21 11:38:45;;;;;;;1.83;1.50;;;;;;;21.56;36.96;101448.25;5052996;28;20041;-42
2022/04/21 11:41:13;;;;;;;3.97;1.23;;;;;;;21.56;35.92;101440.16;5049636;28;20203;-42
2022/04/21 11:43:47;;;;;;;2.03;1.20;;;;;;;21.58;36.31;101440.81;5051457;28;20049;-41
2022/04/21 11:46:14;;;;;;;;;;;;;;;21.60;37.51;101431.56;5046688;28;20128;-42
2022/04/21 11:48:41;;;;;;;4.55;1.40;;;;;;;21.62;36.46;101443.00;5053607;28;19921;-41
2022/04/21 11:51:10;;;;;;;1.90;1.05;;;;;;;21.63;35.96;101438.50;5052202;28;20671;-42
2022/04/21 11:53:41;;;;;;;5.07;1.33;;;;;;;21.64;35.16;101441.00;5053221;28;20051;-41
2022/04/21 11:56:09;;;;;;;5.22;1.73;;;;;;;21.65;35.35;101437.31;5052383;28;20444;-43
2022/04/21 11:58:38;;;;;;;2.85;1.35;;;;;;;21.67;35.01;101429.06;5047215;28;20128;-41
2022/04/21 12:06:47;;;;;;;3.95;1.33;;;;;;;21.71;35.36;101432.25;5051155;28;20099;-42
2022/04/21 12:09:21;;;;;;;2.88;1.25;;;;;;;21.73;35.25;101422.16;5051824;28;20033;-42
2022/04/21 12:11:56;;;;;;;1.55;1.27;;;;;;;21.73;35.94;101417.59;5051670;28;20045;-43
2022/04/21 12:14:23;;;;;;;1.55;1.13;;;;;;;21.74;36.32;101407.66;5049094;28;20045;-43
2022/04/21 12:16:58;;;;;;;3.95;1.30;;;;;;;21.74;35.05;101415.75;5051441;28;20417;-44
2022/04/21 12:19:44;;;;;;;1.65;1.10;;;;;;;21.76;34.23;101417.28;5051218;28;20488;-43
2022/04/21 12:22:13;;;;;;;5.20;1.30;;;;;;;21.78;35.46;101409.00;5052081;28;20060;-42
2022/04/21 12:24:43;;;;;;;2.25;1.20;;;;;;;21.78;36.34;101409.00;5052088;28;20067;-42